createdAt,value
2018-09-13T00:01:17.734Z,92.60
2018-09-13T00:03:47.200Z,92.60
2018-09-13T00:06:16.547Z,92.80
2018-09-13T00:08:45.923Z,92.80
2018-09-13T00:11:15.543Z,92.90
2018-09-13T00:13:45.156Z,93.10
2018-09-13T00:16:14.686Z,93.20
2018-09-13T00:18:44.110Z,93.20
2018-09-13T00:21:13.452Z,93.50
2018-09-13T00:23:42.854Z,93.40
2018-09-13T00:26:12.252Z,93.20
2018-09-13T00:28:41.733Z,93.40
2018-09-13T00:31:11.158Z,93.40
2018-09-13T00:33:40.639Z,93.20
2018-09-13T00:36:10.041Z,93.50
2018-09-13T00:38:39.459Z,93.50
2018-09-13T00:41:08.852Z,93.60
2018-09-13T00:43:38.280Z,93.60
2018-09-13T00:46:07.655Z,93.70
2018-09-13T00:48:37.043Z,93.70
2018-09-13T00:51:06.547Z,93.70
2018-09-13T00:53:35.911Z,93.90
2018-09-13T00:56:05.328Z,94.00
2018-09-13T00:58:34.957Z,93.90
2018-09-13T01:01:05.294Z,93.90
2018-09-13T01:03:36.754Z,93.90
2018-09-13T01:06:06.298Z,94.00
2018-09-13T01:08:35.930Z,94.20
2018-09-13T01:11:06.141Z,94.20
2018-09-13T01:13:35.688Z,94.30
2018-09-13T01:16:06.326Z,94.20
2018-09-13T01:18:35.970Z,94.30
2018-09-13T01:21:05.856Z,94.40
2018-09-13T01:23:35.875Z,94.40
2018-09-13T01:26:05.503Z,94.50
2018-09-13T01:28:35.234Z,94.40
2018-09-13T01:31:05.827Z,94.50
2018-09-13T01:33:35.831Z,94.50
2018-09-13T01:36:05.754Z,94.50
2018-09-13T01:38:35.488Z,94.40
2018-09-13T01:41:05.671Z,94.50
2018-09-13T01:43:35.375Z,94.60
2018-09-13T01:46:05.941Z,94.70
2018-09-13T01:48:35.577Z,95.20
2018-09-13T01:51:05.840Z,95.30
2018-09-13T01:53:35.695Z,95.30
2018-09-13T01:56:05.483Z,95.60
2018-09-13T01:58:35.059Z,95.10
2018-09-13T02:01:04.491Z,95.00
2018-09-13T02:03:33.800Z,95.20
2018-09-13T02:06:03.260Z,95.10
2018-09-13T02:08:32.661Z,95.00
2018-09-13T02:11:02.021Z,94.90
2018-09-13T02:13:31.375Z,94.90
2018-09-13T02:16:00.714Z,94.90
2018-09-13T02:18:30.200Z,94.90
2018-09-13T02:20:59.596Z,95.00
2018-09-13T02:23:29.113Z,95.20
2018-09-13T02:25:58.557Z,95.50
2018-09-13T02:28:28.611Z,95.50
2018-09-13T02:30:57.992Z,95.50
2018-09-13T02:33:27.380Z,95.40
2018-09-13T02:35:56.776Z,95.60
2018-09-13T02:38:26.172Z,95.70
2018-09-13T02:40:55.676Z,95.80
2018-09-13T02:43:25.024Z,96.00
2018-09-13T02:45:54.373Z,96.10
2018-09-13T02:48:23.738Z,96.30
2018-09-13T02:50:53.152Z,96.50
2018-09-13T02:53:22.592Z,96.70
2018-09-13T02:55:51.954Z,96.80
2018-09-13T02:58:21.318Z,96.80
2018-09-13T03:00:50.701Z,96.70
2018-09-13T03:03:20.410Z,96.60
2018-09-13T03:05:50.002Z,96.90
2018-09-13T03:08:20.104Z,97.00
2018-09-13T03:10:49.619Z,97.10
2018-09-13T03:13:19.180Z,97.00
2018-09-13T03:15:49.559Z,97.00
2018-09-13T03:18:19.595Z,97.40
2018-09-13T03:20:49.096Z,97.50
2018-09-13T03:23:18.675Z,97.60
2018-09-13T03:25:48.581Z,97.80
2018-09-13T03:28:19.187Z,97.90
2018-09-13T03:30:49.957Z,98.00
2018-09-13T03:33:19.673Z,98.00
2018-09-13T03:35:49.632Z,98.10
2018-09-13T03:38:20.002Z,98.20
2018-09-13T03:40:49.608Z,98.30
2018-09-13T03:43:19.932Z,98.30
2018-09-13T03:45:49.908Z,98.30
2018-09-13T03:48:20.132Z,98.50
2018-09-13T03:50:49.695Z,98.50
2018-09-13T03:53:20.066Z,98.50
2018-09-13T03:55:49.597Z,98.40
2018-09-13T03:58:19.346Z,98.60
2018-09-13T04:00:48.987Z,98.60
2018-09-13T04:03:18.997Z,98.40
2018-09-13T04:05:48.890Z,98.50
2018-09-13T04:08:18.430Z,98.50
2018-09-13T04:10:47.760Z,98.40
2018-09-13T04:13:17.299Z,98.40
2018-09-13T04:15:46.704Z,98.40
2018-09-13T04:18:16.059Z,98.40
2018-09-13T04:20:45.479Z,98.40
2018-09-13T04:23:14.900Z,98.80
2018-09-13T04:25:44.416Z,99.00
2018-09-13T04:28:13.902Z,98.80
2018-09-13T04:30:43.310Z,99.00
2018-09-13T04:33:12.707Z,99.20
2018-09-13T04:35:42.245Z,99.20
2018-09-13T04:38:11.608Z,99.20
2018-09-13T04:40:40.964Z,99.30
2018-09-13T04:43:10.439Z,99.30
2018-09-13T04:45:39.892Z,99.20
2018-09-13T04:48:09.259Z,99.00
2018-09-13T04:50:38.649Z,98.90
2018-09-13T04:53:08.064Z,98.80
2018-09-13T04:55:37.443Z,99.00
2018-09-13T04:58:07.102Z,98.90
2018-09-13T05:00:36.422Z,98.70
2018-09-13T05:03:05.847Z,98.60
2018-09-13T05:05:35.192Z,98.50
2018-09-13T05:08:04.600Z,98.20
2018-09-13T05:10:33.988Z,97.80
2018-09-13T05:13:03.408Z,97.50
2018-09-13T05:15:32.796Z,97.70
2018-09-13T05:18:02.211Z,97.60
2018-09-13T05:20:32.739Z,97.50
2018-09-13T05:23:02.086Z,97.60
2018-09-13T05:25:31.594Z,97.50
2018-09-13T05:28:00.913Z,97.30
2018-09-13T05:30:30.842Z,97.10
2018-09-13T05:33:00.298Z,97.10
2018-09-13T05:35:29.764Z,97.10
2018-09-13T05:37:59.230Z,97.10
2018-09-13T05:40:28.603Z,97.00
2018-09-13T05:42:58.075Z,97.00
2018-09-13T05:45:27.963Z,97.20
2018-09-13T05:47:57.316Z,97.50
2018-09-13T05:50:26.822Z,97.70
2018-09-13T05:52:56.128Z,97.80
2018-09-13T05:55:26.167Z,98.00
2018-09-13T05:57:55.747Z,98.20
2018-09-13T06:00:25.291Z,98.20
2018-09-13T06:02:54.681Z,98.10
2018-09-13T06:05:24.049Z,97.60
2018-09-13T06:07:53.509Z,97.10
2018-09-13T06:10:23.014Z,97.00
2018-09-13T06:12:52.468Z,97.00
2018-09-13T06:15:21.963Z,97.10
2018-09-13T06:17:52.351Z,97.00
2018-09-13T06:20:23.743Z,96.90
2018-09-13T06:22:53.099Z,97.30
2018-09-13T06:25:23.481Z,97.50
2018-09-13T06:27:53.063Z,97.80
2018-09-13T06:30:22.851Z,97.50
2018-09-13T06:32:52.936Z,97.30
2018-09-13T06:35:22.462Z,97.20
2018-09-13T06:37:52.253Z,97.60
2018-09-13T06:40:22.176Z,97.80
2018-09-13T06:42:51.717Z,97.50
2018-09-13T06:45:21.395Z,97.60
2018-09-13T06:47:50.859Z,98.20
2018-09-13T06:50:20.492Z,98.40
2018-09-13T06:52:49.919Z,98.90
2018-09-13T06:55:19.418Z,99.30
2018-09-13T06:57:48.812Z,99.60
2018-09-13T07:00:18.175Z,99.50
2018-09-13T07:02:47.499Z,99.30
2018-09-13T07:05:16.899Z,99.30
2018-09-13T07:07:46.483Z,99.20
2018-09-13T07:10:15.855Z,99.50
2018-09-13T07:12:45.271Z,99.30
2018-09-13T07:15:14.654Z,99.40
2018-09-13T07:17:44.024Z,99.30
2018-09-13T07:20:13.423Z,99.20
2018-09-13T07:22:42.761Z,99.10
2018-09-13T07:25:12.138Z,99.10
2018-09-13T07:27:41.554Z,98.90
2018-09-13T07:30:10.968Z,98.80
2018-09-13T07:32:40.392Z,98.60
2018-09-13T07:35:09.791Z,98.60
2018-09-13T07:37:39.131Z,98.50
2018-09-13T07:40:08.500Z,98.60
2018-09-13T07:42:37.993Z,98.40
2018-09-13T07:45:07.568Z,98.30
2018-09-13T07:47:37.872Z,98.30
2018-09-13T07:50:07.289Z,98.20
2018-09-13T07:52:36.833Z,98.20
2018-09-13T07:55:06.757Z,98.20
2018-09-13T07:57:36.096Z,98.00
2018-09-13T08:00:05.520Z,97.90
2018-09-13T08:02:35.060Z,97.80
2018-09-13T08:05:04.504Z,97.80
2018-09-13T08:07:33.900Z,97.50
2018-09-13T08:10:03.266Z,97.40
2018-09-13T08:12:32.701Z,97.40
2018-09-13T08:15:02.141Z,97.30
2018-09-13T08:17:31.632Z,97.10
2018-09-13T08:20:01.016Z,96.90
2018-09-13T08:22:30.480Z,96.50
2018-09-13T08:24:59.930Z,96.20
2018-09-13T08:27:29.447Z,95.90
2018-09-13T08:29:59.433Z,96.20
2018-09-13T08:32:28.894Z,96.00
2018-09-13T08:34:58.616Z,95.90
2018-09-13T08:37:28.056Z,96.00
2018-09-13T08:39:57.437Z,95.90
2018-09-13T08:42:26.831Z,95.80
2018-09-13T08:44:56.294Z,95.80
2018-09-13T08:47:25.691Z,95.70
2018-09-13T08:49:55.053Z,95.80
2018-09-13T08:52:24.503Z,95.80
2018-09-13T08:54:53.885Z,95.90
2018-09-13T08:57:23.192Z,95.90
2018-09-13T08:59:52.666Z,95.90
2018-09-13T09:02:22.030Z,95.90
2018-09-13T09:04:51.403Z,95.50
2018-09-13T09:07:20.777Z,95.50
2018-09-13T09:09:52.104Z,95.40
2018-09-13T09:12:21.518Z,95.40
2018-09-13T09:14:50.923Z,95.60
2018-09-13T09:17:20.274Z,95.60
2018-09-13T09:19:49.711Z,95.60
2018-09-13T09:22:19.135Z,95.60
2018-09-13T09:24:48.561Z,95.50
2018-09-13T09:27:18.003Z,95.40
2018-09-13T09:29:47.468Z,95.40
2018-09-13T09:32:16.986Z,95.20
2018-09-13T09:34:46.476Z,95.00
2018-09-13T09:37:15.822Z,94.90
2018-09-13T09:39:45.247Z,94.80
2018-09-13T09:42:14.725Z,94.70
2018-09-13T09:44:44.091Z,94.30
2018-09-13T09:47:13.518Z,94.10
2018-09-13T09:49:42.966Z,93.80
2018-09-13T09:52:12.351Z,93.70
2018-09-13T09:54:41.627Z,93.60
2018-09-13T09:57:10.939Z,93.80
2018-09-13T09:59:40.248Z,93.90
2018-09-13T10:02:14.651Z,94.00
2018-09-13T10:04:44.037Z,94.00
2018-09-13T10:07:13.437Z,94.00
2018-09-13T10:09:43.054Z,94.00
2018-09-13T10:12:13.197Z,93.70
2018-09-13T10:14:43.180Z,93.60
2018-09-13T10:17:17.512Z,93.60
2018-09-13T10:19:51.815Z,93.90
2018-09-13T10:22:26.202Z,93.90
2018-09-13T10:25:00.655Z,93.80
2018-09-13T10:27:35.009Z,94.00
2018-09-13T10:30:09.454Z,94.30
2018-09-13T10:32:43.727Z,94.00
2018-09-13T10:35:18.024Z,93.90
2018-09-13T10:37:52.369Z,93.80
2018-09-13T10:40:26.855Z,93.70
2018-09-13T10:43:01.145Z,93.60
2018-09-13T10:45:35.572Z,93.50
2018-09-13T10:48:09.982Z,93.30
2018-09-13T10:50:48.286Z,93.20
2018-09-13T10:53:24.612Z,93.00
2018-09-13T10:55:54.281Z,93.10
2018-09-13T10:58:23.688Z,93.20
2018-09-13T11:00:53.138Z,93.40
2018-09-13T11:03:22.568Z,93.90
2018-09-13T11:05:52.956Z,94.30
2018-09-13T11:08:22.531Z,94.50
2018-09-13T11:10:52.344Z,94.40
2018-09-13T11:14:27.263Z,94.40
2018-09-13T11:16:56.671Z,94.90
2018-09-13T11:19:25.986Z,94.60
2018-09-13T11:21:55.416Z,94.70
2018-09-13T11:24:25.354Z,94.60
2018-09-13T11:26:54.700Z,94.80
2018-09-13T11:29:23.984Z,95.10
2018-09-13T11:31:53.366Z,95.30
2018-09-13T11:34:22.607Z,95.30
2018-09-13T11:36:51.866Z,95.40
2018-09-13T11:39:21.183Z,95.50
2018-09-13T11:41:50.523Z,95.80
2018-09-13T11:44:19.851Z,96.10
2018-09-13T11:46:49.151Z,96.40
2018-09-13T11:49:18.532Z,96.60
2018-09-13T11:51:48.388Z,96.50
2018-09-13T11:54:17.782Z,96.90
2018-09-13T11:56:47.203Z,97.30
2018-09-13T11:59:16.617Z,97.50
2018-09-13T12:01:46.100Z,97.70
2018-09-13T12:04:15.316Z,97.90
2018-09-13T12:06:44.593Z,98.20
2018-09-13T12:09:15.236Z,98.40
2018-09-13T12:11:44.515Z,98.70
2018-09-13T12:14:13.834Z,98.90
2018-09-13T12:16:43.132Z,98.80
2018-09-13T12:19:12.629Z,98.80
2018-09-13T12:21:41.939Z,99.10
2018-09-13T12:24:11.494Z,99.60
2018-09-13T12:26:41.164Z,99.40
2018-09-13T12:29:11.103Z,99.60
2018-09-13T12:31:47.734Z,99.90
2018-09-13T12:34:17.396Z,99.90
2018-09-13T12:36:46.767Z,99.70
2018-09-13T12:39:17.156Z,99.60
2018-09-13T12:41:46.467Z,99.90
2018-09-13T12:44:15.943Z,99.90
2018-09-13T12:46:46.044Z,99.90
2018-09-13T12:49:15.535Z,99.90
2018-09-13T12:51:44.888Z,99.90
2018-09-13T12:54:14.359Z,99.90
2018-09-13T12:56:44.212Z,99.90
2018-09-13T12:59:13.527Z,99.90
2018-09-13T13:01:45.596Z,99.90
2018-09-13T13:04:14.996Z,99.90
2018-09-13T13:06:45.720Z,99.90
2018-09-13T13:09:15.161Z,99.90
2018-09-13T13:11:46.937Z,99.90
2018-09-13T13:14:19.545Z,99.90
2018-09-13T13:16:49.128Z,99.90
2018-09-13T13:19:19.110Z,99.90
2018-09-13T13:21:48.439Z,99.90
2018-09-13T13:24:21.308Z,99.90
2018-09-13T13:26:51.006Z,99.90
2018-09-13T13:29:20.609Z,99.90
2018-09-13T13:31:50.395Z,99.90
2018-09-13T13:34:20.909Z,99.90
2018-09-13T13:36:50.404Z,99.90
2018-09-13T13:39:19.775Z,99.90
2018-09-13T13:41:49.108Z,99.90
2018-09-13T13:44:18.553Z,99.90
2018-09-13T13:46:51.151Z,99.90
2018-09-13T13:49:20.687Z,99.90
2018-09-13T13:51:55.308Z,99.90
2018-09-13T13:54:25.689Z,99.90
2018-09-13T13:57:01.395Z,99.90
2018-09-13T14:02:54.183Z,99.90
2018-09-13T14:05:25.997Z,99.90
2018-09-13T14:07:56.584Z,99.90
2018-09-13T14:10:26.100Z,99.90
2018-09-13T14:12:55.488Z,99.90
2018-09-13T14:15:24.831Z,99.90
2018-09-13T14:17:54.153Z,99.90
2018-09-13T14:20:23.786Z,99.90
2018-09-13T14:22:53.167Z,99.90
2018-09-13T14:25:23.187Z,99.90
2018-09-13T14:27:52.693Z,99.90
2018-09-13T14:30:22.173Z,99.90
2018-09-13T14:32:51.590Z,99.90
2018-09-13T14:35:20.976Z,99.90
2018-09-13T14:37:50.362Z,99.90
2018-09-13T14:40:19.713Z,99.90
2018-09-13T14:42:49.213Z,99.90
2018-09-13T14:45:19.205Z,99.90
2018-09-13T14:47:48.843Z,99.90
2018-09-13T14:50:18.263Z,99.90
2018-09-13T14:52:48.224Z,99.90
2018-09-13T14:55:17.683Z,99.90
2018-09-13T14:57:47.019Z,99.90
2018-09-13T15:00:16.416Z,99.90
2018-09-13T15:02:45.759Z,99.90
2018-09-13T15:05:15.157Z,99.90
2018-09-13T15:07:44.553Z,99.90
2018-09-13T15:10:13.892Z,99.90
2018-09-13T15:12:46.003Z,99.90
2018-09-13T15:15:15.671Z,99.90
2018-09-13T15:17:45.037Z,99.90
2018-09-13T15:20:14.781Z,99.90
2018-09-13T15:22:44.259Z,99.90
2018-09-13T15:25:13.645Z,99.90
2018-09-13T15:27:43.087Z,99.90
2018-09-13T15:30:12.595Z,99.90
2018-09-13T15:32:41.929Z,99.90
2018-09-13T15:35:11.814Z,99.90
2018-09-13T15:37:41.226Z,99.90
2018-09-13T15:40:10.572Z,99.90
2018-09-13T15:42:40.162Z,99.90
2018-09-13T15:45:09.489Z,99.90
2018-09-13T15:47:38.860Z,99.90
2018-09-13T15:50:08.325Z,99.90
2018-09-13T15:52:37.695Z,99.90
2018-09-13T15:55:17.879Z,99.90
2018-09-13T15:57:47.464Z,99.90
2018-09-13T16:00:17.119Z,99.90
2018-09-13T16:02:46.652Z,99.90
2018-09-13T16:05:16.054Z,99.90
2018-09-13T16:07:45.598Z,99.90
2018-09-13T16:10:15.020Z,99.90
2018-09-13T16:12:44.629Z,99.90
2018-09-13T16:15:13.952Z,99.90
2018-09-13T16:17:43.328Z,99.90
2018-09-13T16:20:12.638Z,99.90
2018-09-13T16:22:42.611Z,99.90
2018-09-13T16:25:11.892Z,99.90
2018-09-13T16:27:41.287Z,99.90
2018-09-13T16:30:10.596Z,99.90
2018-09-13T16:32:39.973Z,99.90
2018-09-13T16:35:09.685Z,99.90
2018-09-13T16:37:44.248Z,99.90
2018-09-13T16:40:18.791Z,99.90
2018-09-13T16:42:53.891Z,99.90
2018-09-13T16:45:27.572Z,99.90
2018-09-13T16:47:58.028Z,99.90
2018-09-13T16:50:27.380Z,99.90
2018-09-13T16:52:56.709Z,99.90
2018-09-13T16:55:26.098Z,99.90
2018-09-13T16:57:55.563Z,99.90
2018-09-13T17:00:25.826Z,99.90
2018-09-13T17:02:55.856Z,99.90
2018-09-13T17:05:25.259Z,99.90
2018-09-13T17:07:54.481Z,99.90
2018-09-13T17:10:23.773Z,99.90
2018-09-13T17:12:53.500Z,99.90
2018-09-13T17:15:22.945Z,99.90
2018-09-13T17:17:52.274Z,99.90
2018-09-13T17:20:21.594Z,99.90
2018-09-13T17:22:51.076Z,99.90
2018-09-13T17:25:20.530Z,99.90
2018-09-13T17:27:49.860Z,99.90
2018-09-13T17:30:19.196Z,99.90
2018-09-13T17:32:49.445Z,99.90
2018-09-13T17:35:18.852Z,99.90
2018-09-13T17:37:48.073Z,99.90
2018-09-13T17:40:17.396Z,99.90
2018-09-13T17:42:46.640Z,99.90
2018-09-13T17:45:15.961Z,99.90
2018-09-13T17:47:45.212Z,99.90
2018-09-13T17:50:14.454Z,99.90
2018-09-13T17:52:43.769Z,99.90
2018-09-13T17:55:13.131Z,99.90
2018-09-13T17:57:42.513Z,99.90
2018-09-13T18:00:13.279Z,99.90
2018-09-13T18:02:42.684Z,99.90
2018-09-13T18:05:12.089Z,99.90
2018-09-13T18:07:41.432Z,99.90
2018-09-13T18:10:10.739Z,99.90
2018-09-13T18:12:40.582Z,99.90
2018-09-13T18:15:10.095Z,99.90
2018-09-13T18:17:39.377Z,99.90
2018-09-13T18:20:08.827Z,99.90
2018-09-13T18:22:38.097Z,99.90
2018-09-13T18:25:08.461Z,99.90
2018-09-13T18:27:37.771Z,99.90
2018-09-13T18:30:07.173Z,99.90
2018-09-13T18:32:36.433Z,99.90
2018-09-13T18:35:05.803Z,99.90
2018-09-13T18:37:35.235Z,99.90
2018-09-13T18:40:04.763Z,99.90
2018-09-13T18:42:34.147Z,99.90
2018-09-13T18:45:04.436Z,99.90
2018-09-13T18:47:33.791Z,99.90
2018-09-13T18:50:03.068Z,99.90
2018-09-13T18:52:32.408Z,99.90
2018-09-13T18:55:01.660Z,99.90
2018-09-13T18:57:30.958Z,99.90
2018-09-13T19:00:00.265Z,99.90
2018-09-13T19:02:30.580Z,99.90
2018-09-13T19:04:59.883Z,99.90
2018-09-13T19:07:29.223Z,99.90
2018-09-13T19:09:58.483Z,99.90
2018-09-13T19:12:27.717Z,99.90
2018-09-13T19:14:57.054Z,99.90
2018-09-13T19:17:26.441Z,99.90
2018-09-13T19:19:55.723Z,99.90
2018-09-13T19:22:25.020Z,99.90
2018-09-13T19:24:54.359Z,99.90
2018-09-13T19:27:23.638Z,99.90
2018-09-13T19:29:52.944Z,99.90
2018-09-13T19:32:22.255Z,99.90
2018-09-13T19:34:51.564Z,99.90
2018-09-13T19:37:20.954Z,99.90
2018-09-13T19:39:50.324Z,99.90
2018-09-13T19:42:20.200Z,99.90
2018-09-13T19:44:49.578Z,99.90
2018-09-13T19:47:18.883Z,99.90
2018-09-13T19:49:48.216Z,99.90
2018-09-13T19:52:17.563Z,99.90
2018-09-13T19:54:46.895Z,99.90
2018-09-13T19:57:16.280Z,99.90
2018-09-13T19:59:45.745Z,99.90
2018-09-13T20:02:15.052Z,99.90
2018-09-13T20:04:44.620Z,99.90
2018-09-13T20:07:14.108Z,99.90
2018-09-13T20:09:43.395Z,99.90
2018-09-13T20:12:12.692Z,99.90
2018-09-13T20:14:42.467Z,99.90
2018-09-13T20:17:12.993Z,99.90
2018-09-13T20:19:42.337Z,99.90
2018-09-13T20:22:13.428Z,99.90
2018-09-13T20:24:42.797Z,99.90
2018-09-13T20:27:12.095Z,99.90
2018-09-13T20:29:41.439Z,99.90
2018-09-13T20:32:10.724Z,99.90
2018-09-13T20:34:40.800Z,99.90
2018-09-13T20:37:10.139Z,99.90
2018-09-13T20:39:39.559Z,99.90
2018-09-13T20:42:09.050Z,99.90
2018-09-13T20:44:38.393Z,99.90
2018-09-13T20:47:08.484Z,99.90
2018-09-13T20:49:38.048Z,99.90
2018-09-13T20:52:07.380Z,99.90
2018-09-13T20:54:36.976Z,99.90
2018-09-13T20:57:06.234Z,99.90
2018-09-13T20:59:35.496Z,99.90
2018-09-13T21:02:04.791Z,99.90
2018-09-13T21:04:35.167Z,99.90
2018-09-13T21:07:04.572Z,99.90
2018-09-13T21:09:34.003Z,99.90
2018-09-13T21:12:03.306Z,99.90
2018-09-13T21:14:32.619Z,99.80
2018-09-13T21:17:02.097Z,99.60
2018-09-13T21:19:31.394Z,99.40
2018-09-13T21:22:00.720Z,99.20
2018-09-13T21:24:30.043Z,98.80
2018-09-13T21:26:59.315Z,98.40
2018-09-13T21:29:28.556Z,98.00
2018-09-13T21:31:57.927Z,98.10
2018-09-13T21:34:27.258Z,97.80
2018-09-13T21:36:56.563Z,98.30
2018-09-13T21:39:25.903Z,99.20
2018-09-13T21:41:55.165Z,99.10
2018-09-13T21:44:24.510Z,99.60
2018-09-13T21:46:53.813Z,99.90
2018-09-13T21:49:23.154Z,99.90
2018-09-13T21:51:52.726Z,99.90
2018-09-13T21:54:22.124Z,99.90
2018-09-13T21:56:51.455Z,99.90
2018-09-13T21:59:20.720Z,99.90
2018-09-13T22:01:50.049Z,99.90
2018-09-13T22:04:19.343Z,99.90
2018-09-13T22:06:48.728Z,99.90
2018-09-13T22:09:18.064Z,99.90
2018-09-13T22:11:47.447Z,99.90
2018-09-13T22:14:16.815Z,99.90
2018-09-13T22:16:46.387Z,99.90
2018-09-13T22:19:15.667Z,99.90
2018-09-13T22:21:45.064Z,99.90
2018-09-13T22:24:15.219Z,99.90
2018-09-13T22:26:44.600Z,99.90
2018-09-13T22:29:13.941Z,99.90
2018-09-13T22:31:43.221Z,99.90
2018-09-13T22:34:12.555Z,99.90
2018-09-13T22:36:41.845Z,99.90
2018-09-13T22:39:12.047Z,99.80
2018-09-13T22:41:41.324Z,99.40
2018-09-13T22:44:10.618Z,98.80
2018-09-13T22:46:39.948Z,98.60
2018-09-13T22:49:09.319Z,98.00
2018-09-13T22:51:38.663Z,98.10
2018-09-13T22:54:08.061Z,97.80
2018-09-13T22:56:37.334Z,97.20
2018-09-13T22:59:06.743Z,95.90
2018-09-13T23:01:36.034Z,94.90
2018-09-13T23:04:05.381Z,94.80
2018-09-13T23:06:35.220Z,94.60
2018-09-13T23:09:06.043Z,94.10
2018-09-13T23:11:35.586Z,93.70
2018-09-13T23:14:04.915Z,93.50
2018-09-13T23:16:34.351Z,93.30
2018-09-13T23:19:03.609Z,92.90
2018-09-13T23:21:32.973Z,93.20
2018-09-13T23:24:02.272Z,92.70
2018-09-13T23:26:31.615Z,92.30
2018-09-13T23:29:01.084Z,92.40
2018-09-13T23:31:30.429Z,92.30
2018-09-13T23:33:59.808Z,92.20
2018-09-13T23:36:29.205Z,92.20
2018-09-13T23:38:58.560Z,92.10
2018-09-13T23:41:27.811Z,91.90
2018-09-13T23:43:57.104Z,92.10
2018-09-13T23:46:26.483Z,92.10
2018-09-13T23:48:55.689Z,92.10
2018-09-13T23:51:24.987Z,91.90
2018-09-13T23:53:54.365Z,92.00
2018-09-13T23:56:23.594Z,91.90
2018-09-13T23:58:52.917Z,91.90
